createdAt,value
2022-11-05T00:00:35.445Z,79.30
2022-11-05T00:03:25.243Z,78.10
2022-11-05T00:06:12.430Z,77.70
2022-11-05T00:08:59.002Z,77.60
2022-11-05T00:11:45.727Z,76.40
2022-11-05T00:14:31.104Z,76.30
2022-11-05T00:16:57.795Z,76.30
2022-11-05T00:19:24.558Z,76.10
2022-11-05T00:22:10.031Z,76.30
2022-11-05T00:24:55.519Z,76.40
2022-11-05T00:27:22.236Z,76.30
2022-11-05T00:29:48.997Z,75.70
2022-11-05T00:32:15.704Z,75.90
2022-11-05T00:34:42.558Z,76.50
2022-11-05T00:37:09.230Z,76.40
2022-11-05T00:39:35.941Z,76.60
2022-11-05T00:42:21.259Z,76.80
2022-11-05T00:45:03.238Z,77.20
2022-11-05T00:47:50.171Z,76.40
2022-11-05T00:50:17.830Z,75.80
2022-11-05T00:52:56.450Z,76.70
2022-11-05T00:55:34.753Z,77.10
2022-11-05T00:58:04.075Z,77.10
2022-11-05T01:00:32.376Z,77.10
2022-11-05T01:03:01.022Z,77.20
2022-11-05T01:05:28.943Z,76.60
2022-11-05T01:07:56.029Z,77.30
2022-11-05T01:10:23.016Z,77.60
2022-11-05T01:12:50.200Z,78.00
2022-11-05T01:15:18.123Z,78.90
2022-11-05T01:17:44.854Z,78.90
2022-11-05T01:20:12.166Z,78.40
2022-11-05T01:22:39.030Z,78.70
2022-11-05T01:25:07.543Z,78.70
2022-11-05T01:27:35.395Z,78.50
2022-11-05T01:30:02.247Z,79.00
2022-11-05T01:32:29.048Z,79.50
2022-11-05T01:34:55.779Z,79.90
2022-11-05T01:37:22.609Z,80.40
2022-11-05T01:39:49.355Z,80.90
2022-11-05T01:42:24.767Z,82.30
2022-11-05T01:45:09.582Z,82.80
2022-11-05T01:47:38.636Z,83.10
2022-11-05T01:50:36.827Z,82.80
2022-11-05T01:53:13.149Z,83.30
2022-11-05T01:55:49.800Z,83.20
2022-11-05T01:58:22.148Z,83.80
2022-11-05T02:00:49.001Z,83.40
2022-11-05T02:03:17.585Z,82.60
2022-11-05T02:05:45.323Z,82.30
2022-11-05T02:08:20.533Z,82.30
2022-11-05T02:10:48.543Z,82.60
2022-11-05T02:13:15.235Z,82.30
2022-11-05T02:16:00.612Z,82.70
2022-11-05T02:18:57.050Z,82.20
2022-11-05T02:21:39.000Z,81.70
2022-11-05T02:24:26.488Z,81.00
2022-11-05T02:27:20.924Z,82.00
2022-11-05T02:30:04.696Z,82.70
2022-11-05T02:33:04.365Z,83.10
2022-11-05T02:35:56.900Z,84.20
2022-11-05T02:38:48.758Z,84.80
2022-11-05T02:41:49.093Z,85.40
2022-11-05T02:44:50.672Z,85.90
2022-11-05T02:47:18.414Z,85.40
2022-11-05T02:50:19.463Z,85.30
2022-11-05T02:52:52.065Z,86.40
2022-11-05T02:55:40.162Z,86.40
2022-11-05T02:58:07.605Z,86.00
2022-11-05T03:00:43.582Z,85.40
2022-11-05T03:03:14.878Z,85.20
2022-11-05T03:06:19.856Z,85.40
2022-11-05T03:09:00.987Z,84.40
2022-11-05T03:11:31.876Z,84.30
2022-11-05T03:14:17.212Z,84.30
2022-11-05T03:17:04.171Z,84.00
2022-11-05T03:20:12.847Z,84.20
2022-11-05T03:22:49.476Z,84.10
2022-11-05T03:25:20.604Z,84.00
2022-11-05T03:27:50.291Z,84.10
2022-11-05T03:30:18.928Z,84.00
2022-11-05T03:32:55.102Z,83.90
2022-11-05T03:35:30.634Z,83.80
2022-11-05T03:38:03.015Z,84.20
2022-11-05T03:40:35.118Z,84.70
2022-11-05T03:43:07.346Z,84.60
2022-11-05T03:45:41.881Z,84.50
2022-11-05T03:48:12.618Z,84.80
2022-11-05T03:51:05.477Z,85.10
2022-11-05T03:53:36.958Z,85.30
2022-11-05T03:56:09.098Z,85.60
2022-11-05T03:58:37.143Z,85.20
2022-11-05T04:01:04.205Z,84.70
2022-11-05T04:03:36.455Z,84.10
2022-11-05T04:06:23.825Z,84.10
2022-11-05T04:09:09.382Z,83.50
2022-11-05T04:11:54.728Z,84.00
2022-11-05T04:14:21.455Z,84.00
2022-11-05T04:17:06.325Z,83.80
2022-11-05T04:19:56.986Z,82.80
2022-11-05T04:22:44.138Z,84.40
2022-11-05T04:25:11.842Z,83.20
2022-11-05T04:27:38.754Z,83.40
2022-11-05T04:30:18.568Z,83.40
2022-11-05T04:33:07.951Z,83.30
2022-11-05T04:35:37.745Z,82.70
2022-11-05T04:38:07.221Z,82.50
2022-11-05T04:40:34.340Z,82.40
2022-11-05T04:43:01.392Z,82.50
2022-11-05T04:45:30.923Z,82.40
2022-11-05T04:47:57.714Z,82.30
2022-11-05T04:50:24.735Z,82.70
2022-11-05T04:52:51.743Z,82.40
2022-11-05T04:55:18.731Z,82.00
2022-11-05T04:57:51.595Z,81.70
2022-11-05T05:00:20.204Z,82.20
2022-11-05T05:02:47.358Z,82.30
2022-11-05T05:05:14.484Z,82.10
2022-11-05T05:07:42.216Z,82.40
2022-11-05T05:10:10.896Z,82.30
2022-11-05T05:12:37.737Z,82.10
2022-11-05T05:15:05.236Z,82.30
2022-11-05T05:17:31.975Z,82.40
2022-11-05T05:20:17.462Z,82.90
2022-11-05T05:22:44.152Z,82.90
2022-11-05T05:25:10.892Z,83.00
2022-11-05T05:27:37.560Z,82.60
2022-11-05T05:30:04.673Z,83.50
2022-11-05T05:32:31.756Z,83.80
2022-11-05T05:34:58.482Z,83.70
2022-11-05T05:37:25.242Z,83.60
2022-11-05T05:39:53.665Z,83.40
2022-11-05T05:42:21.354Z,83.20
2022-11-05T05:44:48.150Z,83.20
2022-11-05T05:47:14.812Z,84.00
2022-11-05T05:49:41.503Z,84.00
2022-11-05T05:52:08.196Z,83.10
2022-11-05T05:54:41.355Z,82.50
2022-11-05T05:57:09.391Z,82.10
2022-11-05T05:59:36.147Z,82.40
2022-11-05T06:02:03.207Z,83.40
2022-11-05T06:04:29.954Z,83.50
2022-11-05T06:06:56.690Z,83.40
2022-11-05T06:09:23.412Z,83.40
2022-11-05T06:11:50.112Z,82.80
2022-11-05T06:14:16.892Z,82.60
2022-11-05T06:16:43.699Z,82.40
2022-11-05T06:19:10.396Z,82.90
2022-11-05T06:21:37.180Z,82.50
2022-11-05T06:24:04.339Z,83.00
2022-11-05T06:26:31.406Z,82.70
2022-11-05T06:28:58.231Z,82.50
2022-11-05T06:31:25.005Z,82.10
2022-11-05T06:33:51.745Z,81.60
2022-11-05T06:36:19.547Z,81.40
2022-11-05T06:38:46.578Z,81.60
2022-11-05T06:41:13.492Z,81.50
2022-11-05T06:43:40.566Z,81.20
2022-11-05T06:46:07.629Z,81.10
2022-11-05T06:48:34.433Z,82.10
2022-11-05T06:51:01.186Z,82.60
2022-11-05T06:53:28.342Z,83.10
2022-11-05T06:55:55.256Z,83.10
2022-11-05T06:58:22.290Z,83.70
2022-11-05T07:00:49.464Z,84.60
2022-11-05T07:03:16.211Z,85.30
2022-11-05T07:05:48.381Z,84.50
2022-11-05T07:08:15.707Z,84.30
2022-11-05T07:10:42.505Z,84.60
2022-11-05T07:13:09.598Z,83.80
2022-11-05T07:15:37.369Z,83.70
2022-11-05T07:18:07.193Z,83.20
2022-11-05T07:20:34.861Z,83.20
2022-11-05T07:23:07.475Z,82.50
2022-11-05T07:25:34.867Z,82.20
2022-11-05T07:28:02.382Z,81.20
2022-11-05T07:30:30.317Z,80.30
2022-11-05T07:32:57.269Z,81.60
2022-11-05T07:35:24.391Z,81.60
2022-11-05T07:37:54.022Z,81.60
2022-11-05T07:40:22.332Z,82.10
2022-11-05T07:42:54.213Z,82.70
2022-11-05T07:45:21.923Z,82.50
2022-11-05T07:47:50.927Z,82.50
2022-11-05T07:50:19.549Z,81.80
2022-11-05T07:52:46.464Z,81.00
2022-11-05T07:55:13.429Z,81.20
2022-11-05T07:57:43.746Z,81.00
2022-11-05T08:00:15.989Z,80.20
2022-11-05T08:02:43.184Z,79.20
2022-11-05T08:05:10.494Z,78.70
2022-11-05T08:07:37.240Z,78.90
2022-11-05T08:10:04.431Z,78.30
2022-11-05T08:12:32.390Z,78.20
2022-11-05T08:14:59.199Z,77.70
2022-11-05T08:17:25.956Z,77.30
2022-11-05T08:19:52.843Z,76.80
2022-11-05T08:22:19.629Z,76.20
2022-11-05T08:24:46.532Z,76.50
2022-11-05T08:27:13.321Z,76.60
2022-11-05T08:29:40.082Z,76.20
2022-11-05T08:32:06.786Z,76.00
2022-11-05T08:34:33.533Z,75.50
2022-11-05T08:37:03.923Z,75.20
2022-11-05T08:39:30.730Z,74.40
2022-11-05T08:41:57.477Z,74.10
2022-11-05T08:44:24.281Z,74.10
2022-11-05T08:46:51.005Z,73.80
2022-11-05T08:49:17.747Z,72.90
2022-11-05T08:51:45.119Z,73.00
2022-11-05T08:54:11.876Z,72.60
2022-11-05T08:56:38.747Z,72.50
2022-11-05T08:59:06.120Z,73.60
2022-11-05T09:01:33.967Z,73.60
2022-11-05T09:04:00.835Z,74.10
2022-11-05T09:06:27.600Z,73.50
2022-11-05T09:08:54.580Z,73.90
2022-11-05T09:11:21.394Z,73.20
2022-11-05T09:13:48.157Z,73.40
2022-11-05T09:16:20.820Z,73.40
2022-11-05T09:18:48.359Z,73.70
2022-11-05T09:21:15.094Z,74.00
2022-11-05T09:23:41.963Z,74.40
2022-11-05T09:26:09.809Z,74.40
2022-11-05T09:28:36.804Z,74.30
2022-11-05T09:31:09.987Z,75.50
2022-11-05T09:33:39.009Z,76.00
2022-11-05T09:36:06.472Z,76.10
2022-11-05T09:38:37.574Z,76.90
2022-11-05T09:41:24.406Z,78.20
2022-11-05T09:43:55.808Z,78.70
2022-11-05T09:46:26.147Z,79.90
2022-11-05T09:49:02.239Z,81.40
2022-11-05T09:51:29.192Z,81.90
2022-11-05T09:53:56.702Z,80.50
2022-11-05T09:56:33.910Z,81.10
2022-11-05T09:59:06.413Z,81.10
2022-11-05T10:01:37.857Z,80.60
2022-11-05T10:04:18.068Z,80.80
2022-11-05T10:06:53.132Z,80.30
2022-11-05T10:09:45.353Z,78.90
2022-11-05T10:12:39.721Z,78.00
2022-11-05T10:15:38.158Z,75.20
2022-11-05T10:18:21.665Z,74.90
2022-11-05T10:20:48.740Z,74.20
2022-11-05T10:23:18.428Z,73.90
2022-11-05T10:26:06.584Z,72.30
2022-11-05T10:28:34.613Z,71.40
2022-11-05T10:31:05.725Z,70.00
2022-11-05T10:33:50.167Z,69.40
2022-11-05T10:36:29.083Z,68.30
2022-11-05T10:39:17.867Z,67.70
2022-11-05T10:41:59.425Z,66.50
2022-11-05T10:44:51.323Z,66.60
2022-11-05T10:47:45.014Z,65.80
2022-11-05T10:50:33.564Z,67.20
2022-11-05T10:53:12.412Z,66.10
2022-11-05T10:55:44.634Z,66.20
2022-11-05T10:58:16.883Z,66.70
2022-11-05T11:00:46.520Z,67.70
2022-11-05T11:03:45.986Z,67.70
2022-11-05T11:06:24.411Z,68.10
2022-11-05T11:08:53.753Z,66.80
2022-11-05T11:11:35.656Z,67.50
2022-11-05T11:14:13.696Z,66.40
2022-11-05T11:16:45.530Z,67.00
2022-11-05T11:19:21.339Z,66.30
2022-11-05T11:22:08.053Z,66.70
2022-11-05T11:24:38.925Z,66.30
2022-11-05T11:27:10.180Z,65.90
2022-11-05T11:29:42.919Z,65.80
2022-11-05T11:32:15.688Z,65.90
2022-11-05T11:34:44.489Z,65.80
2022-11-05T11:37:20.134Z,66.30
2022-11-05T11:39:50.509Z,66.30
2022-11-05T11:42:31.564Z,66.80
2022-11-05T11:45:03.887Z,66.40
2022-11-05T11:47:30.815Z,66.80
2022-11-05T11:49:59.534Z,65.60
2022-11-05T11:52:29.242Z,64.80
2022-11-05T11:55:11.463Z,64.80
2022-11-05T11:57:50.575Z,63.70
2022-11-05T12:00:18.980Z,63.00
2022-11-05T12:03:04.606Z,62.50
2022-11-05T12:05:40.053Z,59.70
2022-11-05T12:08:29.565Z,60.00
2022-11-05T12:11:15.981Z,59.90
2022-11-05T12:13:56.639Z,59.40
2022-11-05T12:16:52.589Z,60.40
2022-11-05T12:19:28.076Z,59.80
2022-11-05T12:22:04.980Z,60.00
2022-11-05T12:24:46.687Z,59.80
2022-11-05T12:27:35.943Z,59.50
2022-11-05T12:30:16.393Z,59.10
2022-11-05T12:32:55.201Z,59.70
2022-11-05T12:35:31.902Z,59.00
2022-11-05T12:38:25.107Z,58.80
2022-11-05T12:41:25.933Z,59.20
2022-11-05T12:44:09.927Z,59.30
2022-11-05T12:47:02.376Z,59.40
2022-11-05T12:50:00.819Z,59.20
2022-11-05T12:52:38.651Z,59.00
2022-11-05T12:55:22.055Z,58.90
2022-11-05T12:57:53.179Z,59.30
2022-11-05T13:00:25.733Z,58.90
2022-11-05T13:03:27.388Z,59.30
2022-11-05T13:06:05.602Z,59.70
2022-11-05T13:08:48.492Z,60.50
2022-11-05T13:11:28.353Z,61.10
2022-11-05T13:14:15.532Z,61.10
2022-11-05T13:16:48.147Z,61.30
2022-11-05T13:19:31.899Z,61.60
2022-11-05T13:22:09.610Z,61.30
2022-11-05T13:25:01.025Z,61.60
2022-11-05T13:28:05.287Z,62.20
2022-11-05T13:30:37.562Z,63.60
2022-11-05T13:33:16.037Z,67.90
2022-11-05T13:36:27.181Z,71.40
2022-11-05T13:39:07.178Z,73.40
2022-11-05T13:41:57.963Z,76.20
2022-11-05T13:44:42.809Z,78.10
2022-11-05T13:47:38.811Z,77.70
2022-11-05T13:50:36.116Z,77.80
2022-11-05T13:53:08.826Z,78.60
2022-11-05T13:56:02.686Z,79.00
2022-11-05T13:58:51.302Z,78.10
2022-11-05T14:01:24.178Z,77.70
2022-11-05T14:03:53.769Z,78.40
2022-11-05T14:06:27.898Z,78.00
2022-11-05T14:09:00.657Z,76.80
2022-11-05T14:11:34.893Z,76.80
2022-11-05T14:14:05.324Z,76.40
2022-11-05T14:16:52.526Z,77.20
2022-11-05T14:19:19.204Z,76.90
2022-11-05T14:21:51.602Z,77.30
2022-11-05T14:24:23.126Z,78.50
2022-11-05T14:27:01.884Z,79.50
2022-11-05T14:29:45.807Z,80.40
2022-11-05T14:32:44.125Z,80.90
2022-11-05T14:35:16.602Z,76.20
2022-11-05T14:37:53.928Z,75.60
2022-11-05T14:40:42.389Z,76.60
2022-11-05T14:43:15.223Z,77.30
2022-11-05T14:46:06.351Z,78.30
2022-11-05T14:48:51.751Z,77.60
2022-11-05T14:51:35.640Z,78.50
2022-11-05T14:54:34.368Z,78.40
2022-11-05T14:57:02.568Z,79.40
2022-11-05T14:59:31.491Z,79.90
2022-11-05T15:02:09.315Z,80.50
2022-11-05T15:04:37.273Z,81.20
2022-11-05T15:07:04.240Z,81.80
2022-11-05T15:09:47.358Z,82.00
2022-11-05T15:12:22.877Z,81.00
2022-11-05T15:14:58.692Z,81.20
2022-11-05T15:17:30.003Z,80.40
2022-11-05T15:20:40.253Z,79.80
2022-11-05T15:23:12.836Z,79.60
2022-11-05T15:26:05.687Z,79.90
2022-11-05T15:28:45.959Z,80.20
2022-11-05T15:31:12.641Z,80.10
2022-11-05T15:33:44.655Z,79.50
2022-11-05T15:36:23.289Z,79.90
2022-11-05T15:39:08.498Z,79.90
2022-11-05T15:41:36.929Z,79.40
2022-11-05T15:44:03.782Z,79.50
2022-11-05T15:46:30.920Z,79.80
2022-11-05T15:49:09.524Z,79.80
2022-11-05T15:51:36.257Z,79.80
2022-11-05T15:56:54.822Z,80.40
2022-11-05T15:59:23.987Z,79.80
2022-11-05T16:01:54.813Z,80.50
2022-11-05T16:04:24.674Z,80.70
2022-11-05T16:06:54.847Z,81.20
2022-11-05T16:09:23.214Z,81.20
2022-11-05T16:12:11.764Z,81.40
2022-11-05T16:14:38.606Z,81.90
2022-11-05T16:17:24.019Z,81.60
2022-11-05T16:19:52.016Z,83.60
2022-11-05T16:22:19.343Z,84.80
2022-11-05T16:24:46.717Z,85.50
2022-11-05T16:27:19.588Z,85.90
2022-11-05T16:29:56.090Z,86.30
2022-11-05T16:32:31.729Z,86.70
2022-11-05T16:35:06.109Z,86.90
2022-11-05T16:37:39.949Z,87.30
2022-11-05T16:40:25.894Z,87.10
2022-11-05T16:42:54.149Z,87.10
2022-11-05T16:45:24.155Z,86.50
2022-11-05T16:47:51.699Z,87.00
2022-11-05T16:50:30.521Z,86.30
2022-11-05T16:52:57.491Z,86.50
2022-11-05T16:55:24.336Z,86.40
2022-11-05T16:57:54.328Z,86.30
2022-11-05T17:00:22.057Z,86.40
2022-11-05T17:02:49.435Z,85.50
2022-11-05T17:05:18.296Z,84.80
2022-11-05T17:07:45.224Z,84.70
2022-11-05T17:10:12.153Z,84.20
2022-11-05T17:12:39.010Z,83.90
2022-11-05T17:15:35.407Z,83.90
2022-11-05T17:18:03.863Z,83.80
2022-11-05T17:20:41.693Z,83.50
2022-11-05T17:23:14.740Z,84.40
2022-11-05T17:25:44.081Z,84.60
2022-11-05T17:28:11.880Z,83.80
2022-11-05T17:30:41.394Z,83.30
2022-11-05T17:33:09.370Z,82.60
2022-11-05T17:35:42.064Z,81.50
2022-11-05T17:38:10.178Z,81.80
2022-11-05T17:40:37.821Z,81.40
2022-11-05T17:43:05.119Z,80.90
2022-11-05T17:45:32.103Z,80.30
2022-11-05T17:47:58.964Z,80.20
2022-11-05T17:50:25.715Z,79.60
2022-11-05T17:52:52.437Z,79.40
2022-11-05T17:55:19.250Z,79.00
2022-11-05T17:57:50.850Z,78.70
2022-11-05T18:00:20.458Z,78.10
2022-11-05T18:02:49.463Z,77.80
2022-11-05T18:05:18.518Z,77.60
2022-11-05T18:07:46.318Z,77.20
2022-11-05T18:10:14.079Z,77.60
2022-11-05T18:12:41.429Z,77.30
2022-11-05T18:15:08.959Z,77.00
2022-11-05T18:17:36.106Z,76.20
2022-11-05T18:20:04.770Z,75.60
2022-11-05T18:22:31.527Z,74.80
2022-11-05T18:24:58.485Z,74.80
2022-11-05T18:27:27.571Z,74.50
2022-11-05T18:29:54.952Z,74.10
2022-11-05T18:32:21.728Z,74.60
2022-11-05T18:34:48.455Z,74.90
2022-11-05T18:37:15.370Z,74.90
2022-11-05T18:39:42.163Z,74.90
2022-11-05T18:42:09.071Z,74.90
2022-11-05T18:44:39.160Z,74.60
2022-11-05T18:47:06.905Z,74.60
2022-11-05T18:49:33.887Z,74.60
2022-11-05T18:52:00.625Z,75.30
2022-11-05T18:54:27.410Z,75.40
2022-11-05T18:56:54.370Z,75.60
2022-11-05T18:59:36.919Z,75.50
2022-11-05T19:02:05.838Z,77.20
2022-11-05T19:04:32.908Z,78.10
2022-11-05T19:07:04.410Z,78.50
2022-11-05T19:09:33.008Z,79.00
2022-11-05T19:11:59.728Z,79.40
2022-11-05T19:14:26.655Z,79.70
2022-11-05T19:16:53.587Z,80.10
2022-11-05T19:19:20.497Z,81.10
2022-11-05T19:21:47.205Z,80.60
2022-11-05T19:24:17.311Z,81.20
2022-11-05T19:26:44.274Z,80.80
2022-11-05T19:29:11.581Z,80.70
2022-11-05T19:31:38.712Z,80.80
2022-11-05T19:34:05.801Z,80.40
2022-11-05T19:36:33.919Z,79.50
2022-11-05T19:39:04.751Z,78.30
2022-11-05T19:41:31.684Z,78.00
2022-11-05T19:43:59.654Z,77.70
2022-11-05T19:46:26.429Z,77.60
2022-11-05T19:48:53.554Z,77.50
2022-11-05T19:51:23.175Z,77.10
2022-11-05T19:53:52.399Z,77.10
2022-11-05T19:56:22.651Z,76.80
2022-11-05T19:58:50.031Z,77.20
2022-11-05T20:01:18.245Z,76.80
2022-11-05T20:03:45.725Z,77.40
2022-11-05T20:06:15.736Z,77.40
2022-11-05T20:09:14.872Z,77.10
2022-11-05T20:11:29.620Z,76.70
2022-11-05T20:13:56.896Z,76.90
2022-11-05T20:16:24.731Z,76.50
2022-11-05T20:18:52.060Z,76.60
2022-11-05T20:21:19.391Z,77.80
2022-11-05T20:23:46.923Z,76.90
2022-11-05T20:26:14.629Z,77.20
2022-11-05T20:28:42.895Z,77.30
2022-11-05T20:31:15.034Z,76.90
2022-11-05T20:33:42.775Z,77.20
2022-11-05T20:36:14.858Z,77.70
2022-11-05T20:38:42.145Z,77.90
2022-11-05T20:41:10.830Z,78.10
2022-11-05T20:43:40.813Z,78.60
2022-11-05T20:46:08.662Z,78.70
2022-11-05T20:48:35.512Z,79.50
2022-11-05T20:51:14.158Z,79.70
2022-11-05T20:53:41.521Z,80.30
2022-11-05T20:56:09.350Z,80.50
2022-11-05T20:58:37.677Z,80.30
2022-11-05T21:01:05.763Z,79.90
2022-11-05T21:03:32.785Z,80.50
2022-11-05T21:06:04.139Z,81.40
2022-11-05T21:08:31.091Z,81.70
2022-11-05T21:10:58.824Z,82.30
2022-11-05T21:13:27.224Z,82.40
2022-11-05T21:15:57.186Z,82.30
2022-11-05T21:18:29.625Z,82.90
2022-11-05T21:20:56.851Z,83.40
2022-11-05T21:23:23.699Z,83.90
2022-11-05T21:25:50.468Z,84.50
2022-11-05T21:28:17.439Z,84.50
2022-11-05T21:30:45.960Z,84.70
2022-11-05T21:33:14.490Z,84.40
2022-11-05T21:35:44.052Z,85.00
2022-11-05T21:38:12.772Z,85.00
2022-11-05T21:40:40.292Z,85.30
2022-11-05T21:43:07.708Z,85.90
2022-11-05T21:45:34.680Z,86.00
2022-11-05T21:48:01.626Z,86.60
2022-11-05T21:50:47.041Z,87.30
2022-11-05T21:53:33.468Z,87.60
2022-11-05T21:56:19.530Z,87.70
2022-11-05T21:59:04.765Z,88.00
2022-11-05T22:01:31.750Z,88.60
2022-11-05T22:04:02.912Z,89.20
2022-11-05T22:06:33.221Z,90.20
2022-11-05T22:09:00.055Z,90.40
2022-11-05T22:11:26.873Z,90.80
2022-11-05T22:13:53.786Z,91.00
2022-11-05T22:16:20.597Z,91.20
2022-11-05T22:18:47.355Z,91.30
2022-11-05T22:21:18.551Z,91.30
2022-11-05T22:23:45.236Z,91.30
2022-11-05T22:26:11.928Z,91.40
2022-11-05T22:28:38.574Z,91.30
2022-11-05T22:31:12.571Z,90.90
2022-11-05T22:33:39.360Z,90.30
2022-11-05T22:36:06.518Z,90.50
2022-11-05T22:38:33.306Z,90.30
2022-11-05T22:41:05.972Z,90.20
2022-11-05T22:43:33.246Z,90.00
2022-11-05T22:46:15.310Z,90.50
2022-11-05T22:48:43.210Z,89.70
2022-11-05T22:51:16.028Z,89.50
2022-11-05T22:53:43.757Z,89.00
2022-11-05T22:56:13.247Z,89.20
2022-11-05T22:58:40.387Z,89.20
2022-11-05T23:01:08.574Z,89.20
2022-11-05T23:03:35.371Z,89.10
2022-11-05T23:06:27.705Z,89.60
2022-11-05T23:09:33.177Z,89.70
2022-11-05T23:12:00.290Z,88.80
2022-11-05T23:14:27.781Z,88.60
2022-11-05T23:17:13.079Z,89.20
2022-11-05T23:19:58.921Z,89.60
2022-11-05T23:22:48.892Z,89.60
2022-11-05T23:25:19.012Z,90.30
2022-11-05T23:27:48.346Z,90.20
2022-11-05T23:30:25.090Z,90.00
2022-11-05T23:32:53.445Z,89.80
2022-11-05T23:35:40.153Z,90.10
2022-11-05T23:38:32.911Z,90.40
2022-11-05T23:41:21.736Z,90.50
2022-11-05T23:44:07.410Z,90.50
2022-11-05T23:46:52.655Z,90.80
2022-11-05T23:49:19.704Z,90.90
2022-11-05T23:51:46.602Z,90.60
2022-11-05T23:54:13.564Z,90.30
2022-11-05T23:56:40.288Z,90.20
2022-11-05T23:59:07.239Z,90.00
